sensor_id;sensor_type;location;lat;lon;timestamp;temperature;humidity
29731;DHT22;16639;51.488;0.152;2024-01-30T00:02:02;10.70;99.90
29731;DHT22;16639;51.488;0.152;2024-01-30T00:04:30;10.70;99.90
29731;DHT22;16639;51.488;0.152;2024-01-30T00:06:57;10.70;99.90
29731;DHT22;16639;51.488;0.152;2024-01-30T00:09:25;10.70;99.90
29731;DHT22;16639;51.488;0.152;2024-01-30T00:11:52;10.70;99.90
29731;DHT22;16639;51.488;0.152;2024-01-30T00:14:19;10.80;99.90
29731;DHT22;16639;51.488;0.152;2024-01-30T00:16:47;10.80;99.90
29731;DHT22;16639;51.488;0.152;2024-01-30T00:19:14;10.90;99.90
29731;DHT22;16639;51.488;0.152;2024-01-30T00:21:42;10.80;99.90
29731;DHT22;16639;51.488;0.152;2024-01-30T00:24:09;10.90;99.90
29731;DHT22;16639;51.488;0.152;2024-01-30T00:26:37;10.90;99.90
29731;DHT22;16639;51.488;0.152;2024-01-30T00:29:04;10.90;99.90
29731;DHT22;16639;51.488;0.152;2024-01-30T00:31:32;10.90;99.90
29731;DHT22;16639;51.488;0.152;2024-01-30T00:34:00;10.90;99.90
29731;DHT22;16639;51.488;0.152;2024-01-30T00:36:27;10.90;99.90
29731;DHT22;16639;51.488;0.152;2024-01-30T00:38:57;10.90;99.90
29731;DHT22;16639;51.488;0.152;2024-01-30T00:41:24;10.90;99.90
29731;DHT22;16639;51.488;0.152;2024-01-30T00:43:52;10.90;99.90
29731;DHT22;16639;51.488;0.152;2024-01-30T00:46:19;10.90;99.90
29731;DHT22;16639;51.488;0.152;2024-01-30T00:48:47;10.90;99.90
29731;DHT22;16639;51.488;0.152;2024-01-30T00:51:14;11.00;99.90
29731;DHT22;16639;51.488;0.152;2024-01-30T00:53:42;11.00;99.90
29731;DHT22;16639;51.488;0.152;2024-01-30T00:56:09;12.40;99.90
29731;DHT22;16639;51.488;0.152;2024-01-30T00:58:36;11.10;99.90
29731;DHT22;16639;51.488;0.152;2024-01-30T01:01:04;11.00;99.90
29731;DHT22;16639;51.488;0.152;2024-01-30T01:03:31;10.90;99.90
29731;DHT22;16639;51.488;0.152;2024-01-30T01:05:59;11.10;99.90
29731;DHT22;16639;51.488;0.152;2024-01-30T01:08:26;11.10;99.90
29731;DHT22;16639;51.488;0.152;2024-01-30T01:10:54;11.10;99.90
29731;DHT22;16639;51.488;0.152;2024-01-30T01:13:21;11.10;99.90
29731;DHT22;16639;51.488;0.152;2024-01-30T01:15:48;11.10;99.90
29731;DHT22;16639;51.488;0.152;2024-01-30T01:18:16;11.20;99.90
29731;DHT22;16639;51.488;0.152;2024-01-30T01:20:43;11.20;99.90
29731;DHT22;16639;51.488;0.152;2024-01-30T01:23:11;11.30;99.90
29731;DHT22;16639;51.488;0.152;2024-01-30T01:25:39;11.30;99.90
29731;DHT22;16639;51.488;0.152;2024-01-30T01:28:06;11.20;99.90
29731;DHT22;16639;51.488;0.152;2024-01-30T01:30:34;11.20;99.90
29731;DHT22;16639;51.488;0.152;2024-01-30T01:33:01;11.20;99.90
29731;DHT22;16639;51.488;0.152;2024-01-30T01:35:30;12.00;99.90
29731;DHT22;16639;51.488;0.152;2024-01-30T01:37:57;11.30;99.90
29731;DHT22;16639;51.488;0.152;2024-01-30T01:40:27;11.30;99.90
29731;DHT22;16639;51.488;0.152;2024-01-30T01:42:55;11.20;99.90
29731;DHT22;16639;51.488;0.152;2024-01-30T01:45:23;11.60;99.90
29731;DHT22;16639;51.488;0.152;2024-01-30T01:47:51;11.20;99.90
29731;DHT22;16639;51.488;0.152;2024-01-30T01:50:21;11.10;99.90
29731;DHT22;16639;51.488;0.152;2024-01-30T01:52:50;11.20;99.90
29731;DHT22;16639;51.488;0.152;2024-01-30T01:55:20;11.20;99.90
29731;DHT22;16639;51.488;0.152;2024-01-30T01:57:53;11.20;99.90
29731;DHT22;16639;51.488;0.152;2024-01-30T02:00:21;11.00;99.90
29731;DHT22;16639;51.488;0.152;2024-01-30T02:02:49;11.10;99.90
29731;DHT22;16639;51.488;0.152;2024-01-30T02:05:17;11.10;99.90
29731;DHT22;16639;51.488;0.152;2024-01-30T02:07:45;11.10;99.90
29731;DHT22;16639;51.488;0.152;2024-01-30T02:10:13;11.10;99.90
29731;DHT22;16639;51.488;0.152;2024-01-30T02:12:41;11.10;99.90
29731;DHT22;16639;51.488;0.152;2024-01-30T02:15:13;11.10;99.90
29731;DHT22;16639;51.488;0.152;2024-01-30T02:17:41;11.30;99.90
29731;DHT22;16639;51.488;0.152;2024-01-30T02:20:09;11.00;99.90
29731;DHT22;16639;51.488;0.152;2024-01-30T02:22:37;11.00;99.90
29731;DHT22;16639;51.488;0.152;2024-01-30T02:25:05;11.00;99.90
29731;DHT22;16639;51.488;0.152;2024-01-30T02:27:33;11.00;99.90
29731;DHT22;16639;51.488;0.152;2024-01-30T02:30:00;10.90;99.90
29731;DHT22;16639;51.488;0.152;2024-01-30T02:32:28;10.80;99.90
29731;DHT22;16639;51.488;0.152;2024-01-30T02:34:55;10.90;99.90
29731;DHT22;16639;51.488;0.152;2024-01-30T02:37:23;10.90;99.90
29731;DHT22;16639;51.488;0.152;2024-01-30T02:39:50;10.80;99.90
29731;DHT22;16639;51.488;0.152;2024-01-30T02:42:18;10.80;99.90
29731;DHT22;16639;51.488;0.152;2024-01-30T02:44:45;10.80;99.90
29731;DHT22;16639;51.488;0.152;2024-01-30T02:47:12;10.70;99.90
29731;DHT22;16639;51.488;0.152;2024-01-30T02:49:40;10.70;99.90
29731;DHT22;16639;51.488;0.152;2024-01-30T02:52:07;10.40;99.90
29731;DHT22;16639;51.488;0.152;2024-01-30T02:54:35;10.70;99.90
29731;DHT22;16639;51.488;0.152;2024-01-30T02:57:02;10.60;99.90
29731;DHT22;16639;51.488;0.152;2024-01-30T02:59:30;10.60;99.90
29731;DHT22;16639;51.488;0.152;2024-01-30T03:02:00;10.60;99.90
29731;DHT22;16639;51.488;0.152;2024-01-30T03:04:28;10.60;99.90
29731;DHT22;16639;51.488;0.152;2024-01-30T03:06:57;10.60;99.90
29731;DHT22;16639;51.488;0.152;2024-01-30T03:09:25;10.60;99.90
29731;DHT22;16639;51.488;0.152;2024-01-30T03:11:52;10.60;99.90
29731;DHT22;16639;51.488;0.152;2024-01-30T03:14:19;10.50;99.90
29731;DHT22;16639;51.488;0.152;2024-01-30T03:16:47;10.50;99.90
29731;DHT22;16639;51.488;0.152;2024-01-30T03:19:14;10.50;99.90
29731;DHT22;16639;51.488;0.152;2024-01-30T03:21:42;10.50;99.90
29731;DHT22;16639;51.488;0.152;2024-01-30T03:24:09;10.50;99.90
29731;DHT22;16639;51.488;0.152;2024-01-30T03:26:37;10.50;99.90
29731;DHT22;16639;51.488;0.152;2024-01-30T03:29:04;10.90;99.90
29731;DHT22;16639;51.488;0.152;2024-01-30T03:31:32;10.90;99.90
29731;DHT22;16639;51.488;0.152;2024-01-30T03:33:59;10.50;99.90
29731;DHT22;16639;51.488;0.152;2024-01-30T03:36:28;10.50;99.90
29731;DHT22;16639;51.488;0.152;2024-01-30T03:38:55;10.60;99.90
29731;DHT22;16639;51.488;0.152;2024-01-30T03:41:23;10.50;99.90
29731;DHT22;16639;51.488;0.152;2024-01-30T03:43:50;10.50;99.90
29731;DHT22;16639;51.488;0.152;2024-01-30T03:46:17;10.40;99.90
29731;DHT22;16639;51.488;0.152;2024-01-30T03:48:45;10.40;99.90
29731;DHT22;16639;51.488;0.152;2024-01-30T03:51:13;10.40;99.90
29731;DHT22;16639;51.488;0.152;2024-01-30T03:53:42;10.40;99.90
29731;DHT22;16639;51.488;0.152;2024-01-30T03:56:10;10.40;99.90
29731;DHT22;16639;51.488;0.152;2024-01-30T03:58:37;10.40;99.90
29731;DHT22;16639;51.488;0.152;2024-01-30T04:01:04;10.40;99.90
29731;DHT22;16639;51.488;0.152;2024-01-30T04:03:32;10.40;99.90
29731;DHT22;16639;51.488;0.152;2024-01-30T04:05:59;10.40;99.90
29731;DHT22;16639;51.488;0.152;2024-01-30T04:08:27;10.40;99.90
29731;DHT22;16639;51.488;0.152;2024-01-30T04:10:54;10.40;99.90
29731;DHT22;16639;51.488;0.152;2024-01-30T04:13:22;10.30;99.90
29731;DHT22;16639;51.488;0.152;2024-01-30T04:15:49;10.30;99.90
29731;DHT22;16639;51.488;0.152;2024-01-30T04:18:17;10.30;99.90
29731;DHT22;16639;51.488;0.152;2024-01-30T04:20:45;10.30;99.90
29731;DHT22;16639;51.488;0.152;2024-01-30T04:23:12;10.30;99.90
29731;DHT22;16639;51.488;0.152;2024-01-30T04:25:40;10.40;99.90
29731;DHT22;16639;51.488;0.152;2024-01-30T04:28:07;10.30;99.90
29731;DHT22;16639;51.488;0.152;2024-01-30T04:30:35;10.30;99.90
29731;DHT22;16639;51.488;0.152;2024-01-30T04:33:03;10.30;99.90
29731;DHT22;16639;51.488;0.152;2024-01-30T04:35:30;10.30;99.90
29731;DHT22;16639;51.488;0.152;2024-01-30T04:37:58;10.30;99.90
29731;DHT22;16639;51.488;0.152;2024-01-30T04:40:25;10.30;99.90
29731;DHT22;16639;51.488;0.152;2024-01-30T04:42:53;10.20;99.90
29731;DHT22;16639;51.488;0.152;2024-01-30T04:45:20;10.20;99.90
29731;DHT22;16639;51.488;0.152;2024-01-30T04:47:47;10.20;99.90
29731;DHT22;16639;51.488;0.152;2024-01-30T04:50:15;10.20;99.90
29731;DHT22;16639;51.488;0.152;2024-01-30T04:52:43;10.10;99.90
29731;DHT22;16639;51.488;0.152;2024-01-30T04:55:10;10.20;99.90
29731;DHT22;16639;51.488;0.152;2024-01-30T04:57:37;10.10;99.90
29731;DHT22;16639;51.488;0.152;2024-01-30T05:00:06;10.10;99.90
29731;DHT22;16639;51.488;0.152;2024-01-30T05:02:33;10.10;99.90
29731;DHT22;16639;51.488;0.152;2024-01-30T05:05:00;10.10;99.90
29731;DHT22;16639;51.488;0.152;2024-01-30T05:07:28;10.00;99.90
29731;DHT22;16639;51.488;0.152;2024-01-30T05:09:55;10.00;99.90
29731;DHT22;16639;51.488;0.152;2024-01-30T05:12:26;10.00;99.90
29731;DHT22;16639;51.488;0.152;2024-01-30T05:14:53;10.00;99.90
29731;DHT22;16639;51.488;0.152;2024-01-30T05:17:21;10.10;99.90
29731;DHT22;16639;51.488;0.152;2024-01-30T05:19:48;8.90;99.90
29731;DHT22;16639;51.488;0.152;2024-01-30T05:22:16;10.10;99.90
29731;DHT22;16639;51.488;0.152;2024-01-30T05:24:46;10.10;99.90
29731;DHT22;16639;51.488;0.152;2024-01-30T05:27:13;10.10;99.90
29731;DHT22;16639;51.488;0.152;2024-01-30T05:29:41;10.10;99.90
29731;DHT22;16639;51.488;0.152;2024-01-30T05:32:08;10.10;99.90
29731;DHT22;16639;51.488;0.152;2024-01-30T05:34:37;10.00;99.90
29731;DHT22;16639;51.488;0.152;2024-01-30T05:37:04;10.10;99.90
29731;DHT22;16639;51.488;0.152;2024-01-30T05:39:32;10.10;99.90
29731;DHT22;16639;51.488;0.152;2024-01-30T05:42:00;10.00;99.90
29731;DHT22;16639;51.488;0.152;2024-01-30T05:44:27;10.10;99.90
29731;DHT22;16639;51.488;0.152;2024-01-30T05:46:55;10.10;99.90
29731;DHT22;16639;51.488;0.152;2024-01-30T05:49:22;10.10;99.90
29731;DHT22;16639;51.488;0.152;2024-01-30T05:51:50;10.10;99.90
29731;DHT22;16639;51.488;0.152;2024-01-30T05:54:17;10.10;99.90
29731;DHT22;16639;51.488;0.152;2024-01-30T05:56:45;10.00;99.90
29731;DHT22;16639;51.488;0.152;2024-01-30T05:59:12;10.00;99.90
29731;DHT22;16639;51.488;0.152;2024-01-30T06:01:46;10.00;99.90
29731;DHT22;16639;51.488;0.152;2024-01-30T06:04:14;10.00;99.90
29731;DHT22;16639;51.488;0.152;2024-01-30T06:06:42;10.00;99.90
29731;DHT22;16639;51.488;0.152;2024-01-30T06:09:09;10.00;99.90
29731;DHT22;16639;51.488;0.152;2024-01-30T06:11:36;10.00;99.90
29731;DHT22;16639;51.488;0.152;2024-01-30T06:14:04;10.00;99.90
29731;DHT22;16639;51.488;0.152;2024-01-30T06:16:31;9.30;99.90
29731;DHT22;16639;51.488;0.152;2024-01-30T06:18:59;9.90;99.90
29731;DHT22;16639;51.488;0.152;2024-01-30T06:21:27;9.80;99.90
29731;DHT22;16639;51.488;0.152;2024-01-30T06:23:54;9.80;99.90
29731;DHT22;16639;51.488;0.152;2024-01-30T06:26:22;9.80;99.90
29731;DHT22;16639;51.488;0.152;2024-01-30T06:28:49;9.50;99.90
29731;DHT22;16639;51.488;0.152;2024-01-30T06:31:16;9.80;99.90
29731;DHT22;16639;51.488;0.152;2024-01-30T06:33:47;9.70;99.90
29731;DHT22;16639;51.488;0.152;2024-01-30T06:36:14;9.70;99.90
29731;DHT22;16639;51.488;0.152;2024-01-30T06:38:42;9.60;99.90
29731;DHT22;16639;51.488;0.152;2024-01-30T06:41:09;9.60;99.90
29731;DHT22;16639;51.488;0.152;2024-01-30T06:43:36;9.50;99.90
29731;DHT22;16639;51.488;0.152;2024-01-30T06:46:04;9.50;99.90
29731;DHT22;16639;51.488;0.152;2024-01-30T06:48:31;9.50;99.90
29731;DHT22;16639;51.488;0.152;2024-01-30T06:50:59;9.50;99.90
29731;DHT22;16639;51.488;0.152;2024-01-30T06:53:26;9.50;99.90
29731;DHT22;16639;51.488;0.152;2024-01-30T06:55:53;9.30;99.90
29731;DHT22;16639;51.488;0.152;2024-01-30T06:58:21;9.50;99.90
29731;DHT22;16639;51.488;0.152;2024-01-30T07:00:48;9.40;99.90
29731;DHT22;16639;51.488;0.152;2024-01-30T07:03:16;9.40;99.90
29731;DHT22;16639;51.488;0.152;2024-01-30T07:05:43;9.20;99.90
29731;DHT22;16639;51.488;0.152;2024-01-30T07:08:11;9.20;99.90
29731;DHT22;16639;51.488;0.152;2024-01-30T07:10:38;9.20;99.90
29731;DHT22;16639;51.488;0.152;2024-01-30T07:13:06;9.20;99.90
29731;DHT22;16639;51.488;0.152;2024-01-30T07:15:33;9.10;99.90
29731;DHT22;16639;51.488;0.152;2024-01-30T07:18:01;9.20;99.90
29731;DHT22;16639;51.488;0.152;2024-01-30T07:20:28;9.20;99.90
29731;DHT22;16639;51.488;0.152;2024-01-30T07:22:58;9.20;99.90
29731;DHT22;16639;51.488;0.152;2024-01-30T07:25:26;9.20;99.90
29731;DHT22;16639;51.488;0.152;2024-01-30T07:27:57;9.10;99.90
29731;DHT22;16639;51.488;0.152;2024-01-30T07:30:25;9.20;99.90
29731;DHT22;16639;51.488;0.152;2024-01-30T07:32:52;9.10;99.90
29731;DHT22;16639;51.488;0.152;2024-01-30T07:35:20;9.00;99.90
29731;DHT22;16639;51.488;0.152;2024-01-30T07:37:47;9.00;99.90
29731;DHT22;16639;51.488;0.152;2024-01-30T07:40:15;9.10;99.90
29731;DHT22;16639;51.488;0.152;2024-01-30T07:42:43;9.10;99.90
29731;DHT22;16639;51.488;0.152;2024-01-30T07:45:11;9.10;99.90
29731;DHT22;16639;51.488;0.152;2024-01-30T07:47:38;9.10;99.90
29731;DHT22;16639;51.488;0.152;2024-01-30T07:50:06;9.20;99.90
29731;DHT22;16639;51.488;0.152;2024-01-30T07:52:34;9.10;99.90
29731;DHT22;16639;51.488;0.152;2024-01-30T07:55:02;9.10;99.90
29731;DHT22;16639;51.488;0.152;2024-01-30T07:57:32;9.10;99.90
29731;DHT22;16639;51.488;0.152;2024-01-30T08:00:03;9.10;99.90
29731;DHT22;16639;51.488;0.152;2024-01-30T08:02:30;9.10;99.90
29731;DHT22;16639;51.488;0.152;2024-01-30T08:04:58;8.80;99.90
29731;DHT22;16639;51.488;0.152;2024-01-30T08:07:25;9.10;99.90
29731;DHT22;16639;51.488;0.152;2024-01-30T08:09:53;9.10;99.90
29731;DHT22;16639;51.488;0.152;2024-01-30T08:12:21;9.10;99.90
29731;DHT22;16639;51.488;0.152;2024-01-30T08:14:48;9.10;99.90
29731;DHT22;16639;51.488;0.152;2024-01-30T08:17:15;9.10;99.90
29731;DHT22;16639;51.488;0.152;2024-01-30T08:19:43;9.00;99.90
29731;DHT22;16639;51.488;0.152;2024-01-30T08:22:12;9.00;99.90
29731;DHT22;16639;51.488;0.152;2024-01-30T08:24:41;9.00;99.90
29731;DHT22;16639;51.488;0.152;2024-01-30T08:27:08;9.00;99.90
29731;DHT22;16639;51.488;0.152;2024-01-30T08:29:39;9.10;99.90
29731;DHT22;16639;51.488;0.152;2024-01-30T08:32:07;9.00;99.90
29731;DHT22;16639;51.488;0.152;2024-01-30T08:34:34;9.00;99.90
29731;DHT22;16639;51.488;0.152;2024-01-30T08:37:02;9.10;99.90
29731;DHT22;16639;51.488;0.152;2024-01-30T08:39:30;9.00;99.90
29731;DHT22;16639;51.488;0.152;2024-01-30T08:41:58;9.10;99.90
29731;DHT22;16639;51.488;0.152;2024-01-30T08:44:25;8.30;99.90
29731;DHT22;16639;51.488;0.152;2024-01-30T08:46:53;9.10;99.90
29731;DHT22;16639;51.488;0.152;2024-01-30T08:49:22;9.10;99.90
29731;DHT22;16639;51.488;0.152;2024-01-30T08:51:50;9.10;99.90
29731;DHT22;16639;51.488;0.152;2024-01-30T08:54:18;9.00;99.90
29731;DHT22;16639;51.488;0.152;2024-01-30T08:56:45;9.20;99.90
29731;DHT22;16639;51.488;0.152;2024-01-30T08:59:13;9.10;99.90
29731;DHT22;16639;51.488;0.152;2024-01-30T09:01:40;9.00;99.90
29731;DHT22;16639;51.488;0.152;2024-01-30T09:04:21;9.00;99.90
29731;DHT22;16639;51.488;0.152;2024-01-30T09:06:52;9.00;99.90
29731;DHT22;16639;51.488;0.152;2024-01-30T09:09:20;9.00;99.90
29731;DHT22;16639;51.488;0.152;2024-01-30T09:11:47;9.10;99.90
29731;DHT22;16639;51.488;0.152;2024-01-30T09:14:15;9.00;99.90
29731;DHT22;16639;51.488;0.152;2024-01-30T09:16:43;9.00;99.90
29731;DHT22;16639;51.488;0.152;2024-01-30T09:19:10;9.40;99.90
29731;DHT22;16639;51.488;0.152;2024-01-30T09:21:37;9.40;99.90
29731;DHT22;16639;51.488;0.152;2024-01-30T09:24:05;9.00;99.90
29731;DHT22;16639;51.488;0.152;2024-01-30T09:26:32;9.00;99.90
29731;DHT22;16639;51.488;0.152;2024-01-30T09:29:00;9.00;99.90
29731;DHT22;16639;51.488;0.152;2024-01-30T09:31:27;9.00;99.90
29731;DHT22;16639;51.488;0.152;2024-01-30T09:33:56;8.90;99.90
29731;DHT22;16639;51.488;0.152;2024-01-30T09:36:24;9.00;99.90
29731;DHT22;16639;51.488;0.152;2024-01-30T09:38:52;9.00;99.90
29731;DHT22;16639;51.488;0.152;2024-01-30T09:41:20;9.00;99.90
29731;DHT22;16639;51.488;0.152;2024-01-30T09:43:51;9.00;99.90
29731;DHT22;16639;51.488;0.152;2024-01-30T09:46:20;9.00;99.90
29731;DHT22;16639;51.488;0.152;2024-01-30T09:48:48;9.00;99.90
29731;DHT22;16639;51.488;0.152;2024-01-30T09:51:17;8.90;99.90
29731;DHT22;16639;51.488;0.152;2024-01-30T09:53:46;9.00;99.90
29731;DHT22;16639;51.488;0.152;2024-01-30T09:56:18;9.10;99.90
29731;DHT22;16639;51.488;0.152;2024-01-30T09:58:45;9.10;99.90
29731;DHT22;16639;51.488;0.152;2024-01-30T10:01:13;9.10;99.90
29731;DHT22;16639;51.488;0.152;2024-01-30T10:03:46;9.10;99.90
29731;DHT22;16639;51.488;0.152;2024-01-30T10:06:14;9.10;99.90
29731;DHT22;16639;51.488;0.152;2024-01-30T10:08:42;9.10;99.90
29731;DHT22;16639;51.488;0.152;2024-01-30T10:11:09;9.40;99.90
29731;DHT22;16639;51.488;0.152;2024-01-30T10:13:39;9.10;99.90
29731;DHT22;16639;51.488;0.152;2024-01-30T10:16:06;9.10;99.90
29731;DHT22;16639;51.488;0.152;2024-01-30T10:18:34;9.10;99.90
29731;DHT22;16639;51.488;0.152;2024-01-30T10:21:01;9.20;99.90
29731;DHT22;16639;51.488;0.152;2024-01-30T10:23:30;9.10;99.90
29731;DHT22;16639;51.488;0.152;2024-01-30T10:26:03;9.20;99.90
29731;DHT22;16639;51.488;0.152;2024-01-30T10:28:31;9.20;99.90
29731;DHT22;16639;51.488;0.152;2024-01-30T10:31:01;9.20;99.90
29731;DHT22;16639;51.488;0.152;2024-01-30T10:33:33;9.30;99.90
29731;DHT22;16639;51.488;0.152;2024-01-30T10:36:05;9.20;99.90
29731;DHT22;16639;51.488;0.152;2024-01-30T10:38:33;9.30;99.90
29731;DHT22;16639;51.488;0.152;2024-01-30T10:41:01;9.30;99.90
29731;DHT22;16639;51.488;0.152;2024-01-30T10:43:35;9.30;99.90
29731;DHT22;16639;51.488;0.152;2024-01-30T10:46:24;9.40;99.90
29731;DHT22;16639;51.488;0.152;2024-01-30T10:48:58;9.20;99.90
29731;DHT22;16639;51.488;0.152;2024-01-30T10:51:29;9.30;99.90
29731;DHT22;16639;51.488;0.152;2024-01-30T10:53:58;9.40;99.90
29731;DHT22;16639;51.488;0.152;2024-01-30T10:56:26;9.40;99.90
29731;DHT22;16639;51.488;0.152;2024-01-30T10:58:54;9.40;99.90
29731;DHT22;16639;51.488;0.152;2024-01-30T11:01:23;9.20;99.90
29731;DHT22;16639;51.488;0.152;2024-01-30T11:03:54;9.50;99.90
29731;DHT22;16639;51.488;0.152;2024-01-30T11:06:23;9.50;99.90
29731;DHT22;16639;51.488;0.152;2024-01-30T11:09:04;9.50;99.90
29731;DHT22;16639;51.488;0.152;2024-01-30T11:11:51;9.60;99.90
29731;DHT22;16639;51.488;0.152;2024-01-30T11:14:24;10.30;99.90
29731;DHT22;16639;51.488;0.152;2024-01-30T11:16:53;9.50;99.90
29731;DHT22;16639;51.488;0.152;2024-01-30T11:19:24;9.60;99.90
29731;DHT22;16639;51.488;0.152;2024-01-30T11:21:53;9.50;99.90
29731;DHT22;16639;51.488;0.152;2024-01-30T11:24:21;9.50;99.90
29731;DHT22;16639;51.488;0.152;2024-01-30T11:26:49;9.50;99.90
29731;DHT22;16639;51.488;0.152;2024-01-30T11:29:17;8.90;99.90
29731;DHT22;16639;51.488;0.152;2024-01-30T11:31:56;9.40;99.90
29731;DHT22;16639;51.488;0.152;2024-01-30T11:34:24;9.40;99.90
29731;DHT22;16639;51.488;0.152;2024-01-30T11:37:03;9.40;99.90
29731;DHT22;16639;51.488;0.152;2024-01-30T11:39:30;9.40;99.90
29731;DHT22;16639;51.488;0.152;2024-01-30T11:41:59;9.30;99.90
29731;DHT22;16639;51.488;0.152;2024-01-30T11:44:26;9.30;99.90
29731;DHT22;16639;51.488;0.152;2024-01-30T11:46:54;9.60;99.90
29731;DHT22;16639;51.488;0.152;2024-01-30T11:49:23;9.30;99.90
29731;DHT22;16639;51.488;0.152;2024-01-30T11:51:52;9.30;99.90
29731;DHT22;16639;51.488;0.152;2024-01-30T11:54:21;9.30;99.90
29731;DHT22;16639;51.488;0.152;2024-01-30T11:56:48;9.30;99.90
29731;DHT22;16639;51.488;0.152;2024-01-30T11:59:15;9.30;99.90
29731;DHT22;16639;51.488;0.152;2024-01-30T12:01:43;9.30;99.90
29731;DHT22;16639;51.488;0.152;2024-01-30T12:04:10;9.30;99.90
29731;DHT22;16639;51.488;0.152;2024-01-30T12:06:38;9.20;99.90
29731;DHT22;16639;51.488;0.152;2024-01-30T12:09:09;9.20;99.90
29731;DHT22;16639;51.488;0.152;2024-01-30T12:11:46;9.20;99.90
29731;DHT22;16639;51.488;0.152;2024-01-30T12:14:14;9.10;99.90
29731;DHT22;16639;51.488;0.152;2024-01-30T12:16:43;9.10;99.90
29731;DHT22;16639;51.488;0.152;2024-01-30T12:19:10;9.10;99.90
29731;DHT22;16639;51.488;0.152;2024-01-30T12:21:38;9.10;99.90
29731;DHT22;16639;51.488;0.152;2024-01-30T12:24:06;9.10;99.90
29731;DHT22;16639;51.488;0.152;2024-01-30T12:26:35;9.10;99.90
29731;DHT22;16639;51.488;0.152;2024-01-30T12:29:05;9.10;99.90
29731;DHT22;16639;51.488;0.152;2024-01-30T12:31:32;9.20;99.90
29731;DHT22;16639;51.488;0.152;2024-01-30T12:34:00;9.20;99.90
29731;DHT22;16639;51.488;0.152;2024-01-30T12:36:29;9.00;99.90
29731;DHT22;16639;51.488;0.152;2024-01-30T12:38:58;9.30;99.90
29731;DHT22;16639;51.488;0.152;2024-01-30T12:41:26;9.30;99.90
29731;DHT22;16639;51.488;0.152;2024-01-30T12:43:57;9.40;99.90
29731;DHT22;16639;51.488;0.152;2024-01-30T12:46:28;9.40;99.90
29731;DHT22;16639;51.488;0.152;2024-01-30T12:48:56;9.50;99.90
29731;DHT22;16639;51.488;0.152;2024-01-30T12:51:24;9.50;99.90
29731;DHT22;16639;51.488;0.152;2024-01-30T12:53:52;9.50;99.90
29731;DHT22;16639;51.488;0.152;2024-01-30T12:56:19;9.50;99.90
29731;DHT22;16639;51.488;0.152;2024-01-30T12:58:48;9.50;99.90
29731;DHT22;16639;51.488;0.152;2024-01-30T13:01:22;9.60;99.90
29731;DHT22;16639;51.488;0.152;2024-01-30T13:03:50;9.60;99.90
29731;DHT22;16639;51.488;0.152;2024-01-30T13:06:17;9.60;99.90
29731;DHT22;16639;51.488;0.152;2024-01-30T13:08:45;9.60;99.90
29731;DHT22;16639;51.488;0.152;2024-01-30T13:11:12;9.60;99.90
29731;DHT22;16639;51.488;0.152;2024-01-30T13:13:47;9.60;99.90
29731;DHT22;16639;51.488;0.152;2024-01-30T13:16:15;9.90;99.90
29731;DHT22;16639;51.488;0.152;2024-01-30T13:18:44;9.50;99.90
29731;DHT22;16639;51.488;0.152;2024-01-30T13:21:12;9.60;99.90
29731;DHT22;16639;51.488;0.152;2024-01-30T13:23:39;9.60;99.90
29731;DHT22;16639;51.488;0.152;2024-01-30T13:26:07;9.60;99.90
29731;DHT22;16639;51.488;0.152;2024-01-30T13:28:34;9.10;99.90
29731;DHT22;16639;51.488;0.152;2024-01-30T13:31:01;9.60;99.90
29731;DHT22;16639;51.488;0.152;2024-01-30T13:33:29;9.50;99.90
29731;DHT22;16639;51.488;0.152;2024-01-30T13:35:56;9.50;99.90
29731;DHT22;16639;51.488;0.152;2024-01-30T13:38:24;9.60;99.90
29731;DHT22;16639;51.488;0.152;2024-01-30T13:40:51;9.40;99.90
29731;DHT22;16639;51.488;0.152;2024-01-30T13:43:19;9.40;99.90
29731;DHT22;16639;51.488;0.152;2024-01-30T13:45:46;9.50;99.90
29731;DHT22;16639;51.488;0.152;2024-01-30T13:48:14;9.20;99.90
29731;DHT22;16639;51.488;0.152;2024-01-30T13:50:41;9.50;99.90
29731;DHT22;16639;51.488;0.152;2024-01-30T13:53:09;9.50;99.90
29731;DHT22;16639;51.488;0.152;2024-01-30T13:55:37;9.50;99.90
29731;DHT22;16639;51.488;0.152;2024-01-30T13:58:09;10.30;99.90
29731;DHT22;16639;51.488;0.152;2024-01-30T14:00:36;9.60;99.90
29731;DHT22;16639;51.488;0.152;2024-01-30T14:03:04;9.60;99.90
29731;DHT22;16639;51.488;0.152;2024-01-30T14:05:32;9.60;99.90
29731;DHT22;16639;51.488;0.152;2024-01-30T14:08:00;9.90;99.90
29731;DHT22;16639;51.488;0.152;2024-01-30T14:10:27;9.60;99.90
29731;DHT22;16639;51.488;0.152;2024-01-30T14:12:55;9.60;99.90
29731;DHT22;16639;51.488;0.152;2024-01-30T14:15:23;9.50;99.90
29731;DHT22;16639;51.488;0.152;2024-01-30T14:17:55;9.50;99.90
29731;DHT22;16639;51.488;0.152;2024-01-30T14:20:25;9.50;99.90
29731;DHT22;16639;51.488;0.152;2024-01-30T14:22:53;8.70;99.90
29731;DHT22;16639;51.488;0.152;2024-01-30T14:25:23;9.40;99.90
29731;DHT22;16639;51.488;0.152;2024-01-30T14:27:51;9.40;99.90
29731;DHT22;16639;51.488;0.152;2024-01-30T14:30:19;9.30;99.90
29731;DHT22;16639;51.488;0.152;2024-01-30T14:32:46;9.30;99.90
29731;DHT22;16639;51.488;0.152;2024-01-30T14:35:15;9.30;99.90
29731;DHT22;16639;51.488;0.152;2024-01-30T14:37:42;9.30;99.90
29731;DHT22;16639;51.488;0.152;2024-01-30T14:40:10;9.30;99.90
29731;DHT22;16639;51.488;0.152;2024-01-30T14:42:38;9.30;99.90
29731;DHT22;16639;51.488;0.152;2024-01-30T14:45:06;9.30;99.90
29731;DHT22;16639;51.488;0.152;2024-01-30T14:47:34;9.30;99.90
29731;DHT22;16639;51.488;0.152;2024-01-30T14:50:04;9.50;99.90
29731;DHT22;16639;51.488;0.152;2024-01-30T14:52:36;9.20;99.90
29731;DHT22;16639;51.488;0.152;2024-01-30T14:55:04;9.20;99.90
29731;DHT22;16639;51.488;0.152;2024-01-30T14:57:32;9.20;99.90
29731;DHT22;16639;51.488;0.152;2024-01-30T15:00:02;9.20;99.90
29731;DHT22;16639;51.488;0.152;2024-01-30T15:02:30;9.20;99.90
29731;DHT22;16639;51.488;0.152;2024-01-30T15:04:57;9.30;99.90
29731;DHT22;16639;51.488;0.152;2024-01-30T15:07:25;9.20;99.90
29731;DHT22;16639;51.488;0.152;2024-01-30T15:10:05;9.10;99.90
29731;DHT22;16639;51.488;0.152;2024-01-30T15:12:33;9.20;99.90
29731;DHT22;16639;51.488;0.152;2024-01-30T15:15:06;9.30;99.90
29731;DHT22;16639;51.488;0.152;2024-01-30T15:17:34;9.20;99.90
29731;DHT22;16639;51.488;0.152;2024-01-30T15:20:02;9.20;99.90
29731;DHT22;16639;51.488;0.152;2024-01-30T15:22:31;9.10;99.90
29731;DHT22;16639;51.488;0.152;2024-01-30T15:24:59;9.10;99.90
29731;DHT22;16639;51.488;0.152;2024-01-30T15:27:26;9.10;99.90
29731;DHT22;16639;51.488;0.152;2024-01-30T15:29:57;9.10;99.90
29731;DHT22;16639;51.488;0.152;2024-01-30T15:32:24;9.10;99.90
29731;DHT22;16639;51.488;0.152;2024-01-30T15:34:52;9.10;99.90
29731;DHT22;16639;51.488;0.152;2024-01-30T15:37:20;9.10;99.90
29731;DHT22;16639;51.488;0.152;2024-01-30T15:39:48;9.00;99.90
29731;DHT22;16639;51.488;0.152;2024-01-30T15:42:15;9.00;99.90
29731;DHT22;16639;51.488;0.152;2024-01-30T15:44:43;9.00;99.90
29731;DHT22;16639;51.488;0.152;2024-01-30T15:47:10;9.10;99.90